sensor_id;sensor_type;location;lat;lon;timestamp;P1;durP1;ratioP1;P2;durP2;ratioP2
43124;SDS011;49182;50.788;7.318;2023-04-29T00:00:33;9.38;;;5.60;;
43124;SDS011;49182;50.788;7.318;2023-04-29T00:03:00;8.73;;;5.22;;
43124;SDS011;49182;50.788;7.318;2023-04-29T00:05:26;7.78;;;5.38;;
43124;SDS011;49182;50.788;7.318;2023-04-29T00:07:53;9.68;;;5.95;;
43124;SDS011;49182;50.788;7.318;2023-04-29T00:10:20;8.40;;;5.13;;
43124;SDS011;49182;50.788;7.318;2023-04-29T00:12:46;9.32;;;5.63;;
43124;SDS011;49182;50.788;7.318;2023-04-29T00:15:14;12.25;;;5.75;;
43124;SDS011;49182;50.788;7.318;2023-04-29T00:17:41;8.65;;;5.55;;
43124;SDS011;49182;50.788;7.318;2023-04-29T00:20:08;9.90;;;6.03;;
43124;SDS011;49182;50.788;7.318;2023-04-29T00:22:35;9.52;;;5.90;;
43124;SDS011;49182;50.788;7.318;2023-04-29T00:25:02;9.32;;;5.40;;
43124;SDS011;49182;50.788;7.318;2023-04-29T00:27:29;10.55;;;5.90;;
43124;SDS011;49182;50.788;7.318;2023-04-29T00:29:56;10.77;;;5.70;;
43124;SDS011;49182;50.788;7.318;2023-04-29T00:32:24;9.18;;;5.35;;
43124;SDS011;49182;50.788;7.318;2023-04-29T00:34:51;11.60;;;6.45;;
43124;SDS011;49182;50.788;7.318;2023-04-29T00:37:17;10.38;;;5.80;;
43124;SDS011;49182;50.788;7.318;2023-04-29T00:39:44;9.38;;;5.80;;
43124;SDS011;49182;50.788;7.318;2023-04-29T00:42:10;11.07;;;6.30;;
43124;SDS011;49182;50.788;7.318;2023-04-29T00:44:37;10.48;;;6.20;;
43124;SDS011;49182;50.788;7.318;2023-04-29T00:47:04;10.15;;;5.93;;
43124;SDS011;49182;50.788;7.318;2023-04-29T00:49:32;11.45;;;6.40;;
43124;SDS011;49182;50.788;7.318;2023-04-29T00:51:58;11.48;;;6.40;;
43124;SDS011;49182;50.788;7.318;2023-04-29T00:54:26;10.75;;;6.22;;
43124;SDS011;49182;50.788;7.318;2023-04-29T00:56:52;12.98;;;7.05;;
43124;SDS011;49182;50.788;7.318;2023-04-29T00:59:21;11.38;;;7.03;;
43124;SDS011;49182;50.788;7.318;2023-04-29T01:01:48;12.55;;;6.75;;
43124;SDS011;49182;50.788;7.318;2023-04-29T01:04:14;11.27;;;6.72;;
43124;SDS011;49182;50.788;7.318;2023-04-29T01:06:47;12.80;;;6.95;;
43124;SDS011;49182;50.788;7.318;2023-04-29T01:09:25;11.57;;;6.78;;
43124;SDS011;49182;50.788;7.318;2023-04-29T01:12:00;15.63;;;6.97;;
43124;SDS011;49182;50.788;7.318;2023-04-29T01:14:33;15.15;;;7.55;;
43124;SDS011;49182;50.788;7.318;2023-04-29T01:17:04;13.75;;;7.28;;
43124;SDS011;49182;50.788;7.318;2023-04-29T01:19:38;12.30;;;6.72;;
43124;SDS011;49182;50.788;7.318;2023-04-29T01:22:10;13.40;;;7.07;;
43124;SDS011;49182;50.788;7.318;2023-04-29T01:24:38;12.90;;;6.97;;
43124;SDS011;49182;50.788;7.318;2023-04-29T01:27:09;11.30;;;6.28;;
43124;SDS011;49182;50.788;7.318;2023-04-29T01:29:50;13.80;;;7.30;;
43124;SDS011;49182;50.788;7.318;2023-04-29T01:32:26;12.43;;;6.90;;
43124;SDS011;49182;50.788;7.318;2023-04-29T01:35:03;13.60;;;7.47;;
43124;SDS011;49182;50.788;7.318;2023-04-29T01:37:45;13.13;;;7.35;;
43124;SDS011;49182;50.788;7.318;2023-04-29T01:40:21;12.32;;;6.88;;
43124;SDS011;49182;50.788;7.318;2023-04-29T01:43:03;13.68;;;6.57;;
43124;SDS011;49182;50.788;7.318;2023-04-29T01:45:33;14.05;;;6.97;;
43124;SDS011;49182;50.788;7.318;2023-04-29T01:48:02;12.95;;;7.03;;
43124;SDS011;49182;50.788;7.318;2023-04-29T01:50:30;12.63;;;7.28;;
43124;SDS011;49182;50.788;7.318;2023-04-29T01:53:16;15.50;;;6.60;;
43124;SDS011;49182;50.788;7.318;2023-04-29T01:55:47;12.98;;;6.55;;
43124;SDS011;49182;50.788;7.318;2023-04-29T01:58:24;13.60;;;6.97;;
43124;SDS011;49182;50.788;7.318;2023-04-29T02:00:58;14.90;;;7.40;;
43124;SDS011;49182;50.788;7.318;2023-04-29T02:03:28;15.55;;;8.30;;
43124;SDS011;49182;50.788;7.318;2023-04-29T02:05:56;15.45;;;8.05;;
43124;SDS011;49182;50.788;7.318;2023-04-29T02:08:23;22.60;;;8.32;;
43124;SDS011;49182;50.788;7.318;2023-04-29T02:10:53;13.23;;;7.43;;
43124;SDS011;49182;50.788;7.318;2023-04-29T02:13:30;16.80;;;8.57;;
43124;SDS011;49182;50.788;7.318;2023-04-29T02:15:56;20.20;;;9.23;;
43124;SDS011;49182;50.788;7.318;2023-04-29T02:18:23;18.65;;;9.00;;
43124;SDS011;49182;50.788;7.318;2023-04-29T02:20:50;13.98;;;8.48;;
43124;SDS011;49182;50.788;7.318;2023-04-29T02:23:16;17.10;;;9.15;;
43124;SDS011;49182;50.788;7.318;2023-04-29T02:25:43;13.40;;;8.05;;
43124;SDS011;49182;50.788;7.318;2023-04-29T02:28:11;13.55;;;7.88;;
43124;SDS011;49182;50.788;7.318;2023-04-29T02:30:39;16.02;;;8.98;;
43124;SDS011;49182;50.788;7.318;2023-04-29T02:33:06;15.52;;;8.00;;
43124;SDS011;49182;50.788;7.318;2023-04-29T02:35:34;16.50;;;8.38;;
43124;SDS011;49182;50.788;7.318;2023-04-29T02:38:00;17.00;;;8.93;;
43124;SDS011;49182;50.788;7.318;2023-04-29T02:40:27;15.98;;;8.48;;
43124;SDS011;49182;50.788;7.318;2023-04-29T02:42:54;15.45;;;8.20;;
43124;SDS011;49182;50.788;7.318;2023-04-29T02:45:22;18.15;;;9.55;;
43124;SDS011;49182;50.788;7.318;2023-04-29T02:47:48;19.15;;;10.82;;
43124;SDS011;49182;50.788;7.318;2023-04-29T02:50:15;25.13;;;11.75;;
43124;SDS011;49182;50.788;7.318;2023-04-29T02:52:42;21.42;;;11.63;;
43124;SDS011;49182;50.788;7.318;2023-04-29T02:55:08;20.25;;;10.75;;
43124;SDS011;49182;50.788;7.318;2023-04-29T02:57:35;21.00;;;10.98;;
43124;SDS011;49182;50.788;7.318;2023-04-29T03:00:02;26.95;;;13.65;;
43124;SDS011;49182;50.788;7.318;2023-04-29T03:02:31;22.98;;;12.38;;
43124;SDS011;49182;50.788;7.318;2023-04-29T03:04:58;20.90;;;12.25;;
43124;SDS011;49182;50.788;7.318;2023-04-29T03:07:25;24.45;;;12.93;;
43124;SDS011;49182;50.788;7.318;2023-04-29T03:09:51;25.35;;;13.77;;
43124;SDS011;49182;50.788;7.318;2023-04-29T03:12:19;23.40;;;12.93;;
43124;SDS011;49182;50.788;7.318;2023-04-29T03:14:45;26.38;;;13.77;;
43124;SDS011;49182;50.788;7.318;2023-04-29T03:17:12;28.70;;;13.75;;
43124;SDS011;49182;50.788;7.318;2023-04-29T03:19:41;27.67;;;14.65;;
43124;SDS011;49182;50.788;7.318;2023-04-29T03:22:07;24.08;;;13.20;;
43124;SDS011;49182;50.788;7.318;2023-04-29T03:24:34;26.63;;;14.10;;
43124;SDS011;49182;50.788;7.318;2023-04-29T03:27:01;27.20;;;14.13;;
43124;SDS011;49182;50.788;7.318;2023-04-29T03:29:27;29.25;;;15.18;;
43124;SDS011;49182;50.788;7.318;2023-04-29T03:31:54;29.65;;;14.57;;
43124;SDS011;49182;50.788;7.318;2023-04-29T03:34:21;28.90;;;14.60;;
43124;SDS011;49182;50.788;7.318;2023-04-29T03:36:58;24.52;;;13.48;;
43124;SDS011;49182;50.788;7.318;2023-04-29T03:39:24;25.70;;;13.65;;
43124;SDS011;49182;50.788;7.318;2023-04-29T03:41:51;24.95;;;13.68;;
43124;SDS011;49182;50.788;7.318;2023-04-29T03:44:17;26.02;;;13.18;;
43124;SDS011;49182;50.788;7.318;2023-04-29T03:46:44;23.65;;;13.10;;
43124;SDS011;49182;50.788;7.318;2023-04-29T03:49:11;26.35;;;13.93;;
43124;SDS011;49182;50.788;7.318;2023-04-29T03:51:37;29.27;;;13.55;;
43124;SDS011;49182;50.788;7.318;2023-04-29T03:54:11;28.05;;;13.52;;
43124;SDS011;49182;50.788;7.318;2023-04-29T03:56:38;27.77;;;13.68;;
43124;SDS011;49182;50.788;7.318;2023-04-29T03:59:05;29.95;;;14.30;;
43124;SDS011;49182;50.788;7.318;2023-04-29T04:01:32;28.95;;;13.73;;
43124;SDS011;49182;50.788;7.318;2023-04-29T04:03:58;25.95;;;13.13;;
43124;SDS011;49182;50.788;7.318;2023-04-29T04:06:26;28.80;;;14.32;;
43124;SDS011;49182;50.788;7.318;2023-04-29T04:08:53;31.98;;;13.93;;
43124;SDS011;49182;50.788;7.318;2023-04-29T04:11:26;26.85;;;14.43;;
43124;SDS011;49182;50.788;7.318;2023-04-29T04:13:58;29.67;;;15.88;;
43124;SDS011;49182;50.788;7.318;2023-04-29T04:16:25;28.42;;;14.77;;
43124;SDS011;49182;50.788;7.318;2023-04-29T04:18:52;29.05;;;15.65;;
43124;SDS011;49182;50.788;7.318;2023-04-29T04:21:19;31.60;;;16.77;;
43124;SDS011;49182;50.788;7.318;2023-04-29T04:23:54;33.13;;;16.75;;
43124;SDS011;49182;50.788;7.318;2023-04-29T04:26:22;32.20;;;16.73;;
43124;SDS011;49182;50.788;7.318;2023-04-29T04:29:15;34.92;;;17.92;;
43124;SDS011;49182;50.788;7.318;2023-04-29T04:32:07;37.35;;;19.20;;
43124;SDS011;49182;50.788;7.318;2023-04-29T04:34:36;35.38;;;17.63;;
43124;SDS011;49182;50.788;7.318;2023-04-29T04:37:03;36.40;;;18.48;;
43124;SDS011;49182;50.788;7.318;2023-04-29T04:39:31;34.72;;;16.63;;
43124;SDS011;49182;50.788;7.318;2023-04-29T04:41:58;35.30;;;17.13;;
43124;SDS011;49182;50.788;7.318;2023-04-29T04:44:28;31.38;;;15.25;;
43124;SDS011;49182;50.788;7.318;2023-04-29T04:47:14;31.40;;;14.15;;
43124;SDS011;49182;50.788;7.318;2023-04-29T04:49:54;26.27;;;13.27;;
43124;SDS011;49182;50.788;7.318;2023-04-29T04:52:21;29.27;;;14.32;;
43124;SDS011;49182;50.788;7.318;2023-04-29T04:54:58;29.27;;;13.60;;
43124;SDS011;49182;50.788;7.318;2023-04-29T04:57:28;30.75;;;13.95;;
43124;SDS011;49182;50.788;7.318;2023-04-29T05:00:00;34.43;;;14.57;;
43124;SDS011;49182;50.788;7.318;2023-04-29T05:02:27;33.00;;;15.95;;
43124;SDS011;49182;50.788;7.318;2023-04-29T05:04:54;36.92;;;16.00;;
43124;SDS011;49182;50.788;7.318;2023-04-29T05:07:24;40.53;;;17.67;;
43124;SDS011;49182;50.788;7.318;2023-04-29T05:09:59;38.00;;;16.70;;
43124;SDS011;49182;50.788;7.318;2023-04-29T05:12:26;38.10;;;16.98;;
43124;SDS011;49182;50.788;7.318;2023-04-29T05:14:53;37.15;;;16.77;;
43124;SDS011;49182;50.788;7.318;2023-04-29T05:17:21;38.10;;;16.13;;
43124;SDS011;49182;50.788;7.318;2023-04-29T05:19:48;36.45;;;16.00;;
43124;SDS011;49182;50.788;7.318;2023-04-29T05:22:14;37.28;;;16.88;;
43124;SDS011;49182;50.788;7.318;2023-04-29T05:24:41;34.75;;;15.77;;
43124;SDS011;49182;50.788;7.318;2023-04-29T05:27:08;34.72;;;15.35;;
43124;SDS011;49182;50.788;7.318;2023-04-29T05:29:35;35.92;;;15.00;;
43124;SDS011;49182;50.788;7.318;2023-04-29T05:32:02;30.05;;;14.35;;
43124;SDS011;49182;50.788;7.318;2023-04-29T05:34:30;36.13;;;17.05;;
43124;SDS011;49182;50.788;7.318;2023-04-29T05:36:57;34.53;;;14.32;;
43124;SDS011;49182;50.788;7.318;2023-04-29T05:39:24;35.35;;;15.35;;
43124;SDS011;49182;50.788;7.318;2023-04-29T05:44:39;31.10;;;14.93;;
43124;SDS011;49182;50.788;7.318;2023-04-29T05:47:06;33.35;;;15.95;;
43124;SDS011;49182;50.788;7.318;2023-04-29T05:49:34;35.72;;;17.15;;
43124;SDS011;49182;50.788;7.318;2023-04-29T05:52:01;37.70;;;15.30;;
43124;SDS011;49182;50.788;7.318;2023-04-29T05:54:27;40.28;;;17.38;;
43124;SDS011;49182;50.788;7.318;2023-04-29T05:56:54;32.53;;;15.77;;
43124;SDS011;49182;50.788;7.318;2023-04-29T05:59:22;32.50;;;14.63;;
43124;SDS011;49182;50.788;7.318;2023-04-29T06:01:51;34.25;;;14.05;;
43124;SDS011;49182;50.788;7.318;2023-04-29T06:04:19;28.70;;;14.77;;
43124;SDS011;49182;50.788;7.318;2023-04-29T06:07:10;29.23;;;14.25;;
43124;SDS011;49182;50.788;7.318;2023-04-29T06:09:56;29.42;;;14.40;;
43124;SDS011;49182;50.788;7.318;2023-04-29T06:12:24;33.20;;;14.18;;
43124;SDS011;49182;50.788;7.318;2023-04-29T06:14:52;27.50;;;13.82;;
43124;SDS011;49182;50.788;7.318;2023-04-29T06:17:20;28.65;;;13.60;;
43124;SDS011;49182;50.788;7.318;2023-04-29T06:23:29;33.17;;;14.00;;
43124;SDS011;49182;50.788;7.318;2023-04-29T06:25:57;27.05;;;12.50;;
43124;SDS011;49182;50.788;7.318;2023-04-29T06:28:24;28.30;;;13.60;;
43124;SDS011;49182;50.788;7.318;2023-04-29T06:30:51;25.70;;;12.88;;
43124;SDS011;49182;50.788;7.318;2023-04-29T06:33:18;25.90;;;13.40;;
43124;SDS011;49182;50.788;7.318;2023-04-29T06:35:45;24.80;;;12.63;;
43124;SDS011;49182;50.788;7.318;2023-04-29T06:38:21;27.13;;;12.82;;
43124;SDS011;49182;50.788;7.318;2023-04-29T06:41:08;26.77;;;13.65;;
43124;SDS011;49182;50.788;7.318;2023-04-29T06:44:00;26.25;;;13.40;;
43124;SDS011;49182;50.788;7.318;2023-04-29T06:46:54;27.70;;;13.60;;
43124;SDS011;49182;50.788;7.318;2023-04-29T06:49:31;27.95;;;14.65;;
43124;SDS011;49182;50.788;7.318;2023-04-29T06:51:58;25.27;;;12.77;;
43124;SDS011;49182;50.788;7.318;2023-04-29T06:54:25;25.90;;;13.02;;
43124;SDS011;49182;50.788;7.318;2023-04-29T06:56:53;24.05;;;11.45;;
43124;SDS011;49182;50.788;7.318;2023-04-29T06:59:20;31.33;;;14.18;;
43124;SDS011;49182;50.788;7.318;2023-04-29T07:01:46;24.42;;;12.77;;
43124;SDS011;49182;50.788;7.318;2023-04-29T07:04:18;30.55;;;14.98;;
43124;SDS011;49182;50.788;7.318;2023-04-29T07:06:46;23.25;;;12.70;;
43124;SDS011;49182;50.788;7.318;2023-04-29T07:09:13;25.98;;;13.55;;
43124;SDS011;49182;50.788;7.318;2023-04-29T07:11:40;25.92;;;13.50;;
43124;SDS011;49182;50.788;7.318;2023-04-29T07:14:08;24.20;;;12.82;;
43124;SDS011;49182;50.788;7.318;2023-04-29T07:16:35;30.52;;;15.63;;
43124;SDS011;49182;50.788;7.318;2023-04-29T07:19:01;24.83;;;12.55;;
43124;SDS011;49182;50.788;7.318;2023-04-29T07:21:28;25.67;;;11.50;;
43124;SDS011;49182;50.788;7.318;2023-04-29T07:23:55;20.60;;;11.40;;
43124;SDS011;49182;50.788;7.318;2023-04-29T07:26:22;20.42;;;11.63;;
43124;SDS011;49182;50.788;7.318;2023-04-29T07:28:48;18.85;;;10.27;;
43124;SDS011;49182;50.788;7.318;2023-04-29T07:31:16;21.17;;;10.85;;
43124;SDS011;49182;50.788;7.318;2023-04-29T07:33:43;19.73;;;10.73;;
43124;SDS011;49182;50.788;7.318;2023-04-29T07:36:10;19.95;;;10.93;;
43124;SDS011;49182;50.788;7.318;2023-04-29T07:38:37;19.77;;;10.48;;
43124;SDS011;49182;50.788;7.318;2023-04-29T07:41:03;19.65;;;10.13;;
43124;SDS011;49182;50.788;7.318;2023-04-29T07:43:30;16.48;;;9.55;;
43124;SDS011;49182;50.788;7.318;2023-04-29T07:45:58;19.70;;;11.57;;
43124;SDS011;49182;50.788;7.318;2023-04-29T07:48:26;18.70;;;9.30;;
43124;SDS011;49182;50.788;7.318;2023-04-29T07:50:52;17.35;;;9.57;;
43124;SDS011;49182;50.788;7.318;2023-04-29T07:53:19;18.38;;;9.43;;
43124;SDS011;49182;50.788;7.318;2023-04-29T07:55:45;17.65;;;9.25;;
43124;SDS011;49182;50.788;7.318;2023-04-29T07:58:12;17.33;;;9.95;;
43124;SDS011;49182;50.788;7.318;2023-04-29T08:00:39;20.23;;;12.40;;
43124;SDS011;49182;50.788;7.318;2023-04-29T08:03:05;18.70;;;10.00;;
43124;SDS011;49182;50.788;7.318;2023-04-29T08:05:33;21.73;;;12.05;;
43124;SDS011;49182;50.788;7.318;2023-04-29T08:08:01;17.55;;;10.73;;
43124;SDS011;49182;50.788;7.318;2023-04-29T08:10:27;19.58;;;9.73;;
43124;SDS011;49182;50.788;7.318;2023-04-29T08:12:54;17.83;;;10.15;;
43124;SDS011;49182;50.788;7.318;2023-04-29T08:15:21;22.33;;;12.70;;
43124;SDS011;49182;50.788;7.318;2023-04-29T08:17:48;29.98;;;17.30;;
43124;SDS011;49182;50.788;7.318;2023-04-29T08:20:14;18.25;;;10.57;;
43124;SDS011;49182;50.788;7.318;2023-04-29T08:22:43;17.25;;;10.10;;
43124;SDS011;49182;50.788;7.318;2023-04-29T08:25:10;21.67;;;11.23;;
43124;SDS011;49182;50.788;7.318;2023-04-29T08:27:36;20.50;;;10.35;;
43124;SDS011;49182;50.788;7.318;2023-04-29T08:30:03;20.45;;;11.25;;
43124;SDS011;49182;50.788;7.318;2023-04-29T08:32:31;59.42;;;35.85;;
43124;SDS011;49182;50.788;7.318;2023-04-29T08:34:58;19.98;;;11.32;;
43124;SDS011;49182;50.788;7.318;2023-04-29T08:37:24;23.08;;;13.18;;
43124;SDS011;49182;50.788;7.318;2023-04-29T08:39:52;49.45;;;30.17;;
43124;SDS011;49182;50.788;7.318;2023-04-29T08:42:20;26.27;;;13.32;;
43124;SDS011;49182;50.788;7.318;2023-04-29T08:44:58;27.63;;;17.98;;
43124;SDS011;49182;50.788;7.318;2023-04-29T08:47:26;21.90;;;13.60;;
43124;SDS011;49182;50.788;7.318;2023-04-29T08:49:54;20.85;;;12.45;;
43124;SDS011;49182;50.788;7.318;2023-04-29T08:52:21;27.98;;;18.25;;
43124;SDS011;49182;50.788;7.318;2023-04-29T08:54:49;21.45;;;12.63;;
43124;SDS011;49182;50.788;7.318;2023-04-29T08:57:17;22.30;;;13.48;;
43124;SDS011;49182;50.788;7.318;2023-04-29T08:59:45;20.33;;;12.00;;
43124;SDS011;49182;50.788;7.318;2023-04-29T09:02:12;21.70;;;12.25;;
43124;SDS011;49182;50.788;7.318;2023-04-29T09:04:44;21.05;;;12.35;;
43124;SDS011;49182;50.788;7.318;2023-04-29T09:07:17;20.92;;;12.57;;
43124;SDS011;49182;50.788;7.318;2023-04-29T09:09:44;21.90;;;12.95;;
43124;SDS011;49182;50.788;7.318;2023-04-29T09:12:11;23.17;;;13.48;;
43124;SDS011;49182;50.788;7.318;2023-04-29T09:14:39;23.27;;;13.60;;
43124;SDS011;49182;50.788;7.318;2023-04-29T09:17:06;22.42;;;13.50;;
43124;SDS011;49182;50.788;7.318;2023-04-29T09:19:33;20.10;;;12.40;;
43124;SDS011;49182;50.788;7.318;2023-04-29T09:22:03;22.15;;;12.57;;
43124;SDS011;49182;50.788;7.318;2023-04-29T09:24:30;21.13;;;12.82;;
43124;SDS011;49182;50.788;7.318;2023-04-29T09:26:57;24.23;;;13.40;;
43124;SDS011;49182;50.788;7.318;2023-04-29T09:29:25;19.95;;;12.73;;
43124;SDS011;49182;50.788;7.318;2023-04-29T09:31:53;19.70;;;11.75;;
43124;SDS011;49182;50.788;7.318;2023-04-29T09:34:29;24.10;;;11.98;;
43124;SDS011;49182;50.788;7.318;2023-04-29T09:36:56;20.45;;;12.48;;
43124;SDS011;49182;50.788;7.318;2023-04-29T09:39:25;20.50;;;11.80;;
43124;SDS011;49182;50.788;7.318;2023-04-29T09:41:56;20.17;;;11.93;;
43124;SDS011;49182;50.788;7.318;2023-04-29T09:44:24;20.98;;;12.02;;
43124;SDS011;49182;50.788;7.318;2023-04-29T09:46:56;20.38;;;11.30;;
43124;SDS011;49182;50.788;7.318;2023-04-29T09:49:24;20.35;;;11.85;;
43124;SDS011;49182;50.788;7.318;2023-04-29T09:51:53;20.50;;;11.77;;
43124;SDS011;49182;50.788;7.318;2023-04-29T09:54:21;19.30;;;11.70;;
43124;SDS011;49182;50.788;7.318;2023-04-29T09:56:48;19.42;;;12.02;;
43124;SDS011;49182;50.788;7.318;2023-04-29T09:59:17;18.33;;;11.27;;
43124;SDS011;49182;50.788;7.318;2023-04-29T10:01:44;20.23;;;12.10;;
43124;SDS011;49182;50.788;7.318;2023-04-29T10:04:15;18.73;;;10.88;;
43124;SDS011;49182;50.788;7.318;2023-04-29T10:06:43;19.30;;;12.20;;
43124;SDS011;49182;50.788;7.318;2023-04-29T10:09:12;21.35;;;12.35;;
43124;SDS011;49182;50.788;7.318;2023-04-29T10:11:39;23.40;;;13.77;;
43124;SDS011;49182;50.788;7.318;2023-04-29T10:14:06;25.48;;;14.02;;
43124;SDS011;49182;50.788;7.318;2023-04-29T10:16:38;25.35;;;14.32;;
43124;SDS011;49182;50.788;7.318;2023-04-29T10:19:13;27.13;;;14.35;;
43124;SDS011;49182;50.788;7.318;2023-04-29T10:21:44;24.52;;;14.63;;
43124;SDS011;49182;50.788;7.318;2023-04-29T10:24:16;27.95;;;16.95;;
43124;SDS011;49182;50.788;7.318;2023-04-29T10:26:43;28.23;;;15.57;;
43124;SDS011;49182;50.788;7.318;2023-04-29T10:29:10;25.85;;;14.82;;
43124;SDS011;49182;50.788;7.318;2023-04-29T10:31:40;28.92;;;17.17;;
43124;SDS011;49182;50.788;7.318;2023-04-29T10:34:08;31.75;;;16.42;;
43124;SDS011;49182;50.788;7.318;2023-04-29T10:36:36;28.20;;;16.33;;
43124;SDS011;49182;50.788;7.318;2023-04-29T10:39:03;28.27;;;16.83;;
43124;SDS011;49182;50.788;7.318;2023-04-29T10:41:36;27.83;;;16.95;;
43124;SDS011;49182;50.788;7.318;2023-04-29T10:44:07;24.70;;;15.40;;
43124;SDS011;49182;50.788;7.318;2023-04-29T10:46:34;29.55;;;16.77;;
43124;SDS011;49182;50.788;7.318;2023-04-29T10:49:01;26.48;;;16.10;;
43124;SDS011;49182;50.788;7.318;2023-04-29T10:51:30;28.70;;;16.20;;
43124;SDS011;49182;50.788;7.318;2023-04-29T10:53:59;29.83;;;15.70;;
43124;SDS011;49182;50.788;7.318;2023-04-29T10:56:37;30.23;;;15.82;;
43124;SDS011;49182;50.788;7.318;2023-04-29T10:59:05;27.13;;;15.98;;
43124;SDS011;49182;50.788;7.318;2023-04-29T11:01:39;28.67;;;15.65;;
43124;SDS011;49182;50.788;7.318;2023-04-29T11:04:10;26.50;;;15.25;;
43124;SDS011;49182;50.788;7.318;2023-04-29T11:06:39;27.55;;;16.10;;
43124;SDS011;49182;50.788;7.318;2023-04-29T11:09:09;26.08;;;16.15;;
43124;SDS011;49182;50.788;7.318;2023-04-29T11:11:40;26.27;;;16.23;;
43124;SDS011;49182;50.788;7.318;2023-04-29T11:14:08;24.20;;;14.20;;
43124;SDS011;49182;50.788;7.318;2023-04-29T11:16:35;27.63;;;14.80;;
43124;SDS011;49182;50.788;7.318;2023-04-29T11:19:05;26.40;;;16.23;;
43124;SDS011;49182;50.788;7.318;2023-04-29T11:21:33;27.35;;;15.25;;
43124;SDS011;49182;50.788;7.318;2023-04-29T11:24:01;26.55;;;15.48;;
43124;SDS011;49182;50.788;7.318;2023-04-29T11:26:29;27.27;;;16.00;;
43124;SDS011;49182;50.788;7.318;2023-04-29T11:28:55;25.23;;;14.43;;
43124;SDS011;49182;50.788;7.318;2023-04-29T11:31:25;27.15;;;13.98;;
43124;SDS011;49182;50.788;7.318;2023-04-29T11:33:54;26.52;;;15.32;;
43124;SDS011;49182;50.788;7.318;2023-04-29T11:36:20;24.92;;;14.35;;
43124;SDS011;49182;50.788;7.318;2023-04-29T11:38:47;28.25;;;13.68;;
43124;SDS011;49182;50.788;7.318;2023-04-29T11:41:14;27.27;;;15.45;;
43124;SDS011;49182;50.788;7.318;2023-04-29T11:43:42;24.90;;;15.05;;
43124;SDS011;49182;50.788;7.318;2023-04-29T11:46:11;25.02;;;15.68;;
43124;SDS011;49182;50.788;7.318;2023-04-29T11:48:44;26.42;;;16.05;;
43124;SDS011;49182;50.788;7.318;2023-04-29T11:51:11;27.00;;;15.43;;
43124;SDS011;49182;50.788;7.318;2023-04-29T11:53:39;31.27;;;16.92;;
43124;SDS011;49182;50.788;7.318;2023-04-29T11:56:07;26.48;;;15.63;;
43124;SDS011;49182;50.788;7.318;2023-04-29T11:58:34;29.13;;;16.77;;
43124;SDS011;49182;50.788;7.318;2023-04-29T12:01:02;28.77;;;17.17;;
43124;SDS011;49182;50.788;7.318;2023-04-29T12:03:30;30.95;;;18.77;;
43124;SDS011;49182;50.788;7.318;2023-04-29T12:05:58;31.42;;;17.25;;
43124;SDS011;49182;50.788;7.318;2023-04-29T12:08:27;32.53;;;18.38;;
43124;SDS011;49182;50.788;7.318;2023-04-29T12:10:55;28.98;;;18.45;;
43124;SDS011;49182;50.788;7.318;2023-04-29T12:13:23;32.75;;;17.30;;
43124;SDS011;49182;50.788;7.318;2023-04-29T12:15:51;32.05;;;18.35;;
43124;SDS011;49182;50.788;7.318;2023-04-29T12:18:19;33.17;;;18.88;;
43124;SDS011;49182;50.788;7.318;2023-04-29T12:20:46;33.88;;;18.45;;
43124;SDS011;49182;50.788;7.318;2023-04-29T12:23:13;32.72;;;19.20;;
43124;SDS011;49182;50.788;7.318;2023-04-29T12:25:40;33.35;;;18.20;;
43124;SDS011;49182;50.788;7.318;2023-04-29T12:28:10;33.72;;;17.42;;
43124;SDS011;49182;50.788;7.318;2023-04-29T12:30:37;30.67;;;16.90;;
43124;SDS011;49182;50.788;7.318;2023-04-29T12:33:04;29.70;;;16.20;;
43124;SDS011;49182;50.788;7.318;2023-04-29T12:35:34;28.02;;;16.58;;
43124;SDS011;49182;50.788;7.318;2023-04-29T12:38:02;28.13;;;16.77;;
43124;SDS011;49182;50.788;7.318;2023-04-29T12:40:29;26.48;;;14.95;;
43124;SDS011;49182;50.788;7.318;2023-04-29T12:42:57;26.50;;;14.55;;
43124;SDS011;49182;50.788;7.318;2023-04-29T12:45:27;25.00;;;14.40;;
43124;SDS011;49182;50.788;7.318;2023-04-29T12:50:27;30.33;;;15.75;;
43124;SDS011;49182;50.788;7.318;2023-04-29T12:52:57;31.73;;;15.43;;
43124;SDS011;49182;50.788;7.318;2023-04-29T12:55:24;31.25;;;15.27;;
43124;SDS011;49182;50.788;7.318;2023-04-29T12:57:51;27.58;;;15.15;;
43124;SDS011;49182;50.788;7.318;2023-04-29T13:00:18;25.35;;;14.43;;
43124;SDS011;49182;50.788;7.318;2023-04-29T13:02:44;26.10;;;14.93;;
43124;SDS011;49182;50.788;7.318;2023-04-29T13:05:11;29.55;;;15.23;;
43124;SDS011;49182;50.788;7.318;2023-04-29T13:07:38;26.67;;;14.48;;
43124;SDS011;49182;50.788;7.318;2023-04-29T13:10:07;28.08;;;14.80;;
43124;SDS011;49182;50.788;7.318;2023-04-29T13:12:34;27.88;;;14.27;;
43124;SDS011;49182;50.788;7.318;2023-04-29T13:15:01;29.67;;;16.15;;
43124;SDS011;49182;50.788;7.318;2023-04-29T13:17:27;28.58;;;14.77;;
43124;SDS011;49182;50.788;7.318;2023-04-29T13:19:54;29.95;;;16.52;;
43124;SDS011;49182;50.788;7.318;2023-04-29T13:22:21;29.20;;;16.05;;
43124;SDS011;49182;50.788;7.318;2023-04-29T13:24:47;27.65;;;14.60;;
43124;SDS011;49182;50.788;7.318;2023-04-29T13:27:15;33.97;;;16.40;;
43124;SDS011;49182;50.788;7.318;2023-04-29T13:29:42;30.05;;;15.18;;
43124;SDS011;49182;50.788;7.318;2023-04-29T13:32:08;31.92;;;15.57;;
43124;SDS011;49182;50.788;7.318;2023-04-29T13:34:35;27.90;;;14.93;;
43124;SDS011;49182;50.788;7.318;2023-04-29T13:37:02;31.60;;;15.82;;
43124;SDS011;49182;50.788;7.318;2023-04-29T13:39:28;27.20;;;14.60;;
43124;SDS011;49182;50.788;7.318;2023-04-29T13:41:55;27.52;;;13.98;;
43124;SDS011;49182;50.788;7.318;2023-04-29T13:44:26;29.20;;;14.57;;
43124;SDS011;49182;50.788;7.318;2023-04-29T13:47:12;24.23;;;14.25;;
43124;SDS011;49182;50.788;7.318;2023-04-29T13:49:40;30.67;;;16.48;;
43124;SDS011;49182;50.788;7.318;2023-04-29T13:52:27;31.00;;;15.38;;
43124;SDS011;49182;50.788;7.318;2023-04-29T13:55:13;28.67;;;15.18;;
43124;SDS011;49182;50.788;7.318;2023-04-29T13:58:00;25.05;;;14.30;;
43124;SDS011;49182;50.788;7.318;2023-04-29T14:00:48;28.40;;;14.68;;
43124;SDS011;49182;50.788;7.318;2023-04-29T14:03:17;29.38;;;14.63;;
43124;SDS011;49182;50.788;7.318;2023-04-29T14:05:44;30.15;;;15.75;;
43124;SDS011;49182;50.788;7.318;2023-04-29T14:08:11;29.60;;;14.50;;
43124;SDS011;49182;50.788;7.318;2023-04-29T14:10:37;25.25;;;14.35;;
43124;SDS011;49182;50.788;7.318;2023-04-29T14:13:04;25.80;;;14.93;;
43124;SDS011;49182;50.788;7.318;2023-04-29T14:15:31;24.77;;;14.10;;
43124;SDS011;49182;50.788;7.318;2023-04-29T14:17:59;29.98;;;15.07;;
43124;SDS011;49182;50.788;7.318;2023-04-29T14:20:25;27.42;;;14.77;;
43124;SDS011;49182;50.788;7.318;2023-04-29T14:22:52;25.92;;;13.82;;
43124;SDS011;49182;50.788;7.318;2023-04-29T14:25:18;24.90;;;14.18;;
43124;SDS011;49182;50.788;7.318;2023-04-29T14:27:45;26.45;;;13.48;;
43124;SDS011;49182;50.788;7.318;2023-04-29T14:30:12;23.85;;;14.07;;
43124;SDS011;49182;50.788;7.318;2023-04-29T14:32:39;23.77;;;14.35;;
43124;SDS011;49182;50.788;7.318;2023-04-29T14:35:07;22.30;;;12.70;;
43124;SDS011;49182;50.788;7.318;2023-04-29T14:37:34;23.20;;;13.77;;
43124;SDS011;49182;50.788;7.318;2023-04-29T14:40:01;22.35;;;12.95;;
43124;SDS011;49182;50.788;7.318;2023-04-29T14:42:27;21.48;;;12.63;;